createdAt,value
2018-09-18T00:00:53.202Z,8.50
2018-09-18T00:03:23.312Z,8.07
2018-09-18T00:05:53.520Z,9.13
2018-09-18T00:08:23.602Z,7.80
2018-09-18T00:10:54.089Z,8.53
2018-09-18T00:13:24.100Z,7.77
2018-09-18T00:15:54.811Z,8.53
2018-09-18T00:18:26.092Z,7.97
2018-09-18T00:20:56.194Z,8.63
2018-09-18T00:23:26.714Z,9.07
2018-09-18T00:25:56.853Z,8.77
2018-09-18T00:28:27.437Z,8.50
2018-09-18T00:30:57.521Z,7.93
2018-09-18T00:33:27.994Z,9.60
2018-09-18T00:35:58.524Z,8.33
2018-09-18T00:38:28.580Z,8.40
2018-09-18T00:40:59.025Z,9.17
2018-09-18T00:43:29.172Z,8.80
2018-09-18T00:45:59.664Z,8.90
2018-09-18T00:48:30.153Z,9.87
2018-09-18T00:51:00.291Z,9.30
2018-09-18T00:53:30.916Z,10.37
2018-09-18T00:56:00.861Z,8.90
2018-09-18T00:58:31.025Z,9.73
2018-09-18T01:01:01.053Z,8.90
2018-09-18T01:03:32.049Z,10.90
2018-09-18T01:06:02.144Z,9.13
2018-09-18T01:08:32.724Z,9.50
2018-09-18T01:11:02.875Z,10.63
2018-09-18T01:13:33.215Z,9.80
2018-09-18T01:16:04.440Z,9.80
2018-09-18T01:18:39.613Z,10.83
2018-09-18T01:21:10.291Z,9.17
2018-09-18T01:23:40.882Z,9.30
2018-09-18T01:26:11.005Z,9.97
2018-09-18T01:28:41.772Z,9.10
2018-09-18T01:31:11.902Z,10.60
2018-09-18T01:33:42.497Z,9.43
2018-09-18T01:36:12.500Z,9.47
2018-09-18T01:38:42.927Z,11.50
2018-09-18T01:41:14.002Z,9.47
2018-09-18T01:43:44.117Z,10.53
2018-09-18T01:46:15.025Z,11.10
2018-09-18T01:48:46.051Z,10.03
2018-09-18T01:51:16.693Z,10.53
2018-09-18T01:53:46.789Z,13.03
2018-09-18T01:56:17.303Z,10.90
2018-09-18T01:58:48.021Z,9.60
2018-09-18T02:01:18.149Z,9.80
2018-09-18T02:03:48.206Z,12.27
2018-09-18T02:06:23.904Z,11.00
2018-09-18T02:08:54.131Z,9.50
2018-09-18T02:11:24.682Z,10.77
2018-09-18T02:13:54.796Z,12.07
2018-09-18T02:16:25.840Z,10.37
2018-09-18T02:18:55.913Z,11.83
2018-09-18T02:21:26.552Z,11.07
2018-09-18T02:23:56.649Z,10.37
2018-09-18T02:26:26.762Z,9.80
2018-09-18T02:28:56.901Z,9.63
2018-09-18T02:31:27.054Z,9.30
2018-09-18T02:33:57.170Z,10.73
2018-09-18T02:36:28.125Z,9.90
2018-09-18T02:38:58.962Z,9.47
2018-09-18T02:41:29.663Z,10.93
2018-09-18T02:43:59.743Z,11.20
2018-09-18T02:46:30.315Z,9.00
2018-09-18T02:49:01.281Z,10.30
2018-09-18T02:51:32.843Z,9.43
2018-09-18T02:54:03.410Z,8.67
2018-09-18T02:56:33.932Z,9.50
2018-09-18T02:59:04.147Z,9.33
2018-09-18T03:01:34.323Z,11.73
2018-09-18T03:04:04.385Z,9.33
2018-09-18T03:06:34.671Z,11.27
2018-09-18T03:09:06.478Z,8.90
2018-09-18T03:11:37.485Z,9.03
2018-09-18T03:14:08.595Z,9.60
2018-09-18T03:16:39.136Z,11.00
2018-09-18T03:19:09.210Z,10.00
2018-09-18T03:21:39.557Z,10.90
2018-09-18T03:24:09.633Z,12.03
2018-09-18T03:26:39.659Z,9.37
2018-09-18T03:29:09.978Z,8.43
2018-09-18T03:31:40.140Z,11.30
2018-09-18T03:34:10.866Z,11.13
2018-09-18T03:36:41.480Z,9.63
2018-09-18T03:39:11.561Z,10.33
2018-09-18T03:41:42.363Z,11.57
2018-09-18T03:44:14.149Z,13.77
2018-09-18T03:46:44.890Z,13.27
2018-09-18T03:49:14.944Z,15.10
2018-09-18T03:51:45.590Z,15.17
2018-09-18T03:54:15.610Z,18.43
2018-09-18T03:56:46.406Z,20.50
2018-09-18T03:59:17.727Z,26.57
2018-09-18T04:01:48.104Z,25.50
2018-09-18T04:04:18.245Z,31.00
2018-09-18T04:06:48.874Z,26.27
2018-09-18T04:09:19.948Z,20.27
2018-09-18T04:11:50.354Z,16.63
2018-09-18T04:14:20.870Z,13.13
2018-09-18T04:16:50.973Z,15.40
2018-09-18T04:19:21.485Z,13.27
2018-09-18T04:21:51.514Z,12.20
2018-09-18T04:24:22.335Z,12.93
2018-09-18T04:26:53.030Z,14.10
2018-09-18T04:29:24.178Z,17.43
2018-09-18T04:31:54.206Z,15.63
2018-09-18T04:34:24.343Z,14.33
2018-09-18T04:36:54.858Z,12.87
2018-09-18T04:39:24.822Z,14.70
2018-09-18T04:41:55.068Z,16.77
2018-09-18T04:44:26.474Z,14.03
2018-09-18T04:46:56.713Z,15.87
2018-09-18T04:49:27.105Z,15.40
2018-09-18T04:51:57.629Z,15.30
2018-09-18T04:54:27.798Z,18.93
2018-09-18T04:56:57.872Z,18.13
2018-09-18T04:59:28.604Z,17.33
2018-09-18T05:01:58.968Z,27.67
2018-09-18T05:04:29.087Z,15.90
2018-09-18T05:06:59.324Z,15.03
2018-09-18T05:09:30.132Z,14.50
2018-09-18T05:12:00.185Z,18.10
2018-09-18T05:14:31.748Z,14.67
2018-09-18T05:17:02.577Z,15.23
2018-09-18T05:19:32.509Z,14.67
2018-09-18T05:22:03.049Z,28.77
2018-09-18T05:24:33.631Z,16.80
2018-09-18T05:27:03.756Z,15.00
2018-09-18T05:29:34.192Z,14.60
2018-09-18T05:32:04.864Z,17.63
2018-09-18T05:34:35.409Z,17.70
2018-09-18T05:37:05.883Z,17.17
2018-09-18T05:39:36.522Z,15.77
2018-09-18T05:42:07.268Z,17.57
2018-09-18T05:44:37.748Z,15.80
2018-09-18T05:47:09.372Z,15.13
2018-09-18T05:49:40.685Z,12.87
2018-09-18T05:52:10.955Z,12.57
2018-09-18T05:54:41.543Z,16.63
2018-09-18T05:57:12.889Z,14.30
2018-09-18T05:59:43.043Z,16.77
2018-09-18T06:02:13.109Z,16.13
2018-09-18T06:04:43.711Z,17.87
2018-09-18T06:07:14.349Z,13.87
2018-09-18T06:09:45.043Z,14.50
2018-09-18T06:12:15.117Z,14.13
2018-09-18T06:14:45.601Z,15.17
2018-09-18T06:17:15.942Z,15.20
2018-09-18T06:19:46.076Z,14.87
2018-09-18T06:22:16.440Z,17.00
2018-09-18T06:24:46.440Z,16.03
2018-09-18T06:27:17.081Z,16.90
2018-09-18T06:29:47.534Z,17.17
2018-09-18T06:32:19.010Z,15.53
2018-09-18T06:34:49.118Z,15.60
2018-09-18T06:37:19.512Z,14.77
2018-09-18T06:39:49.872Z,15.30
2018-09-18T06:42:20.078Z,14.97
2018-09-18T06:44:50.514Z,15.17
2018-09-18T06:47:21.116Z,15.97
2018-09-18T06:49:51.588Z,19.23
2018-09-18T06:52:21.634Z,18.23
2018-09-18T06:54:51.666Z,15.93
2018-09-18T06:57:22.086Z,14.00
2018-09-18T06:59:52.734Z,18.90
2018-09-18T07:02:24.166Z,16.60
2018-09-18T07:04:55.122Z,14.20
2018-09-18T07:07:25.883Z,13.33
2018-09-18T07:09:56.316Z,13.90
2018-09-18T07:12:26.822Z,14.20
2018-09-18T07:14:57.643Z,14.87
2018-09-18T07:17:27.841Z,14.60
2018-09-18T07:19:58.417Z,13.77
2018-09-18T07:22:29.110Z,14.20
2018-09-18T07:24:59.738Z,14.23
2018-09-18T07:30:26.012Z,14.40
2018-09-18T07:32:56.789Z,13.87
2018-09-18T07:35:26.869Z,15.33
2018-09-18T07:37:57.227Z,12.57
2018-09-18T07:40:27.247Z,13.33
2018-09-18T07:42:57.221Z,13.07
2018-09-18T07:45:27.592Z,13.30
2018-09-18T07:47:58.268Z,12.80
2018-09-18T07:50:28.442Z,12.37
2018-09-18T07:52:59.162Z,13.67
2018-09-18T07:55:29.218Z,13.13
2018-09-18T07:57:59.987Z,13.07
2018-09-18T08:00:30.104Z,12.97
2018-09-18T08:03:01.288Z,12.20
2018-09-18T08:05:31.397Z,12.40
2018-09-18T08:08:01.495Z,12.20
2018-09-18T08:10:32.024Z,12.63
2018-09-18T08:13:02.549Z,11.40
2018-09-18T08:15:33.445Z,13.13
2018-09-18T08:18:03.598Z,12.37
2018-09-18T08:20:34.639Z,11.93
2018-09-18T08:23:04.824Z,13.07
2018-09-18T08:25:35.886Z,11.73
2018-09-18T08:28:06.608Z,12.33
2018-09-18T08:30:36.604Z,13.17
2018-09-18T08:33:07.060Z,12.00
2018-09-18T08:35:37.180Z,13.70
2018-09-18T08:38:07.218Z,12.57
2018-09-18T08:40:38.076Z,11.83
2018-09-18T08:43:08.687Z,12.40
2018-09-18T08:45:38.698Z,12.23
2018-09-18T08:48:09.566Z,11.47
2018-09-18T08:50:40.368Z,14.57
2018-09-18T08:53:10.901Z,12.50
2018-09-18T08:55:41.878Z,12.07
2018-09-18T08:58:12.941Z,10.63
2018-09-18T09:00:43.584Z,10.63
2018-09-18T09:03:13.997Z,10.73
2018-09-18T09:05:44.679Z,11.17
2018-09-18T09:08:16.017Z,9.60
2018-09-18T09:10:45.914Z,10.53
2018-09-18T09:13:15.978Z,10.50
2018-09-18T09:15:46.462Z,10.70
2018-09-18T09:18:19.509Z,12.27
2018-09-18T09:20:49.510Z,12.00
2018-09-18T09:23:20.337Z,9.83
2018-09-18T09:25:50.778Z,10.03
2018-09-18T09:28:20.985Z,9.47
2018-09-18T09:30:51.097Z,10.90
2018-09-18T09:33:21.258Z,9.57
2018-09-18T09:35:52.257Z,8.90
2018-09-18T09:38:22.298Z,10.32
2018-09-18T09:40:52.721Z,12.53
2018-09-18T09:43:23.919Z,12.37
2018-09-18T09:45:54.435Z,9.10
2018-09-18T09:48:24.406Z,8.05
2018-09-18T09:50:54.429Z,10.05
2018-09-18T09:53:24.652Z,10.05
2018-09-18T09:55:54.821Z,8.00
2018-09-18T09:58:25.263Z,8.28
2018-09-18T10:01:00.645Z,7.97
2018-09-18T10:03:31.055Z,10.03
2018-09-18T10:06:01.386Z,9.43
2018-09-18T10:08:31.839Z,8.73
2018-09-18T10:11:02.240Z,7.85
2018-09-18T10:13:32.358Z,7.37
2018-09-18T10:16:02.938Z,7.55
2018-09-18T10:18:33.001Z,8.73
2018-09-18T10:21:03.054Z,7.97
2018-09-18T10:23:33.171Z,8.40
2018-09-18T10:26:03.697Z,12.30
2018-09-18T10:28:34.605Z,7.58
2018-09-18T10:31:04.651Z,7.70
2018-09-18T10:33:34.989Z,8.00
2018-09-18T10:36:05.005Z,6.75
2018-09-18T10:38:35.071Z,11.38
2018-09-18T10:41:05.113Z,6.58
2018-09-18T10:43:35.531Z,6.55
2018-09-18T10:46:05.534Z,6.83
2018-09-18T10:49:07.525Z,8.18
2018-09-18T10:51:37.728Z,7.08
2018-09-18T10:54:08.114Z,7.50
2018-09-18T10:56:38.195Z,7.50
2018-09-18T10:59:08.342Z,6.97
2018-09-18T11:01:38.733Z,7.15
2018-09-18T11:04:09.359Z,7.22
2018-09-18T11:06:40.259Z,6.47
2018-09-18T11:09:11.573Z,6.47
2018-09-18T11:11:42.123Z,7.85
2018-09-18T11:14:13.375Z,6.65
2018-09-18T11:16:44.407Z,6.62
2018-09-18T11:19:14.502Z,8.60
2018-09-18T11:21:45.151Z,6.47
2018-09-18T11:24:15.034Z,7.00
2018-09-18T11:26:46.226Z,6.80
2018-09-18T11:29:16.791Z,8.08
2018-09-18T11:31:46.757Z,8.80
2018-09-18T11:34:17.078Z,8.30
2018-09-18T11:36:47.473Z,7.35
2018-09-18T11:39:18.394Z,7.15
2018-09-18T11:41:48.998Z,6.92
2018-09-18T11:44:19.061Z,5.87
2018-09-18T11:46:49.971Z,5.58
2018-09-18T11:49:20.299Z,6.42
2018-09-18T11:51:50.414Z,6.60
2018-09-18T11:54:20.463Z,4.80
2018-09-18T11:56:50.658Z,6.67
2018-09-18T11:59:20.612Z,5.03
2018-09-18T12:01:51.179Z,4.75
2018-09-18T12:04:21.751Z,5.87
2018-09-18T12:06:52.835Z,7.15
2018-09-18T12:09:22.968Z,5.70
2018-09-18T12:11:54.222Z,5.15
2018-09-18T12:14:24.572Z,5.50
2018-09-18T12:16:54.830Z,6.00
2018-09-18T12:19:25.017Z,7.85
2018-09-18T12:21:55.092Z,5.95
2018-09-18T12:24:25.196Z,9.03
2018-09-18T12:26:55.443Z,5.30
2018-09-18T12:29:25.783Z,6.60
2018-09-18T12:31:55.882Z,5.10
2018-09-18T12:34:25.958Z,5.97
2018-09-18T12:36:55.975Z,5.20
2018-09-18T12:39:26.702Z,5.37
2018-09-18T12:41:56.904Z,6.35
2018-09-18T12:44:26.846Z,5.47
2018-09-18T12:46:57.318Z,6.17
2018-09-18T12:49:27.853Z,4.80
2018-09-18T12:51:57.826Z,16.67
2018-09-18T12:54:28.732Z,6.40
2018-09-18T12:56:59.368Z,5.12
2018-09-18T12:59:29.810Z,4.50
2018-09-18T13:01:59.764Z,7.10
2018-09-18T13:04:29.711Z,4.70
2018-09-18T13:06:59.789Z,5.97
2018-09-18T13:09:30.234Z,4.65
2018-09-18T13:12:00.385Z,5.83
2018-09-18T13:14:31.330Z,4.72
2018-09-18T13:17:02.440Z,6.28
2018-09-18T13:19:32.855Z,4.95
2018-09-18T13:22:03.421Z,4.45
2018-09-18T13:24:34.015Z,4.97
2018-09-18T13:27:04.824Z,6.00
2018-09-18T13:29:35.759Z,4.60
2018-09-18T13:32:05.754Z,4.22
2018-09-18T13:34:35.747Z,5.45
2018-09-18T13:37:06.158Z,6.37
2018-09-18T13:39:36.333Z,5.05
2018-09-18T13:42:06.512Z,4.17
2018-09-18T13:44:37.075Z,4.40
2018-09-18T13:47:07.450Z,4.40
2018-09-18T13:49:37.448Z,4.62
2018-09-18T13:52:09.076Z,5.25
2018-09-18T13:54:39.129Z,3.87
2018-09-18T13:57:09.207Z,5.67
2018-09-18T13:59:40.354Z,5.30
2018-09-18T14:02:10.852Z,4.92
2018-09-18T14:04:41.728Z,5.58
2018-09-18T14:07:11.616Z,4.47
2018-09-18T14:09:42.520Z,5.20
2018-09-18T14:12:12.813Z,5.80
2018-09-18T14:14:43.701Z,3.75
2018-09-18T14:17:14.263Z,4.45
2018-09-18T14:19:44.308Z,5.08
2018-09-18T14:22:14.927Z,4.08
2018-09-18T14:24:45.326Z,7.33
2018-09-18T14:27:15.332Z,4.33
2018-09-18T14:29:45.345Z,5.17
2018-09-18T14:32:15.508Z,3.80
2018-09-18T14:34:45.604Z,5.00
2018-09-18T14:37:16.052Z,3.98
2018-09-18T14:39:46.095Z,3.50
2018-09-18T14:42:16.700Z,4.33
2018-09-18T14:44:47.932Z,3.77
2018-09-18T14:47:18.912Z,5.67
2018-09-18T14:49:50.161Z,4.37
2018-09-18T14:52:20.753Z,5.15
2018-09-18T14:54:50.714Z,3.40
2018-09-18T14:57:21.307Z,4.20
2018-09-18T14:59:51.837Z,4.47
2018-09-18T15:02:21.774Z,3.77
2018-09-18T15:04:51.870Z,3.27
2018-09-18T15:07:21.891Z,3.45
2018-09-18T15:09:52.217Z,4.67
2018-09-18T15:12:22.792Z,4.47
2018-09-18T15:14:53.272Z,3.65
2018-09-18T15:17:23.520Z,3.40
2018-09-18T15:19:53.497Z,3.72
2018-09-18T15:22:23.545Z,6.12
2018-09-18T15:24:54.054Z,3.58
2018-09-18T15:27:24.141Z,4.78
2018-09-18T15:29:54.718Z,4.03
2018-09-18T15:32:25.655Z,4.08
2018-09-18T15:34:57.017Z,3.60
2018-09-18T15:37:28.484Z,3.10
2018-09-18T15:39:59.150Z,4.42
2018-09-18T15:42:29.246Z,3.33
2018-09-18T15:44:59.673Z,3.80
2018-09-18T15:47:29.814Z,4.75
2018-09-18T15:50:00.143Z,4.50
2018-09-18T15:52:30.593Z,3.65
2018-09-18T15:55:01.716Z,3.95
2018-09-18T15:57:32.095Z,3.33
2018-09-18T16:00:02.222Z,3.10
2018-09-18T16:02:33.137Z,2.98
2018-09-18T16:05:04.107Z,3.85
2018-09-18T16:07:34.101Z,4.35
2018-09-18T16:10:04.569Z,3.92
2018-09-18T16:12:35.472Z,3.05
2018-09-18T16:15:06.224Z,3.83
2018-09-18T16:17:36.835Z,4.03
2018-09-18T16:20:07.460Z,3.47
2018-09-18T16:22:37.995Z,3.35
2018-09-18T16:25:08.495Z,4.78
2018-09-18T16:27:39.197Z,3.42
2018-09-18T16:30:10.128Z,4.75
2018-09-18T16:32:41.078Z,3.47
2018-09-18T16:35:11.060Z,3.72
2018-09-18T16:37:41.147Z,4.45
2018-09-18T16:40:11.774Z,6.12
2018-09-18T16:42:42.609Z,3.87
2018-09-18T16:45:13.868Z,3.77
2018-09-18T16:47:44.710Z,5.42
2018-09-18T16:50:15.283Z,3.77
2018-09-18T16:52:45.254Z,4.37
2018-09-18T16:55:15.461Z,4.58
2018-09-18T16:57:46.067Z,4.12
2018-09-18T17:00:16.142Z,4.78
2018-09-18T17:02:46.089Z,5.97
2018-09-18T17:05:16.114Z,5.00
2018-09-18T17:07:46.480Z,5.05
2018-09-18T17:10:16.623Z,6.28
2018-09-18T17:12:46.706Z,4.97
2018-09-18T17:15:17.143Z,5.08
2018-09-18T17:17:47.559Z,5.42
2018-09-18T17:20:17.998Z,7.20
2018-09-18T17:22:48.060Z,6.08
2018-09-18T17:25:18.097Z,6.22
2018-09-18T17:27:48.664Z,5.70
2018-09-18T17:30:19.495Z,5.50
2018-09-18T17:32:49.857Z,6.25
2018-09-18T17:35:20.348Z,6.58
2018-09-18T17:37:50.871Z,7.78
2018-09-18T17:40:20.948Z,6.87
2018-09-18T17:42:51.007Z,4.93
2018-09-18T17:45:21.192Z,7.17
2018-09-18T17:47:51.332Z,7.65
2018-09-18T17:50:21.928Z,5.43
2018-09-18T17:52:52.358Z,7.70
2018-09-18T17:55:22.466Z,7.63
2018-09-18T17:57:53.576Z,5.43
2018-09-18T18:00:23.587Z,6.73
2018-09-18T18:02:53.747Z,6.80
2018-09-18T18:05:23.970Z,7.90
2018-09-18T18:07:54.472Z,6.47
2018-09-18T18:10:24.593Z,6.07
2018-09-18T18:12:54.706Z,7.07
2018-09-18T18:15:24.879Z,7.13
2018-09-18T18:17:55.784Z,6.73
2018-09-18T18:20:25.917Z,9.93
2018-09-18T18:22:55.909Z,7.53
2018-09-18T18:25:26.193Z,6.53
2018-09-18T18:27:56.339Z,8.73
2018-09-18T18:30:26.567Z,9.13
2018-09-18T18:32:57.183Z,6.60
2018-09-18T18:35:27.999Z,8.20
2018-09-18T18:37:58.084Z,11.60
2018-09-18T18:40:28.194Z,7.33
2018-09-18T18:42:58.149Z,7.77
2018-09-18T18:45:28.733Z,5.83
2018-09-18T18:47:59.273Z,9.43
2018-09-18T18:50:29.233Z,9.63
2018-09-18T18:52:59.685Z,6.83
2018-09-18T18:55:30.231Z,7.40
2018-09-18T18:58:00.334Z,6.63
2018-09-18T19:00:32.047Z,8.37
2018-09-18T19:03:01.977Z,7.50
2018-09-18T19:05:32.200Z,8.40
2018-09-18T19:08:03.258Z,9.43
2018-09-18T19:10:33.345Z,7.53
2018-09-18T19:13:03.577Z,8.47
2018-09-18T19:15:34.045Z,8.47
2018-09-18T19:18:04.065Z,4.63
2018-09-18T19:20:34.120Z,7.63
2018-09-18T19:23:04.215Z,8.23
2018-09-18T19:25:34.819Z,5.30
2018-09-18T19:28:05.243Z,6.93
2018-09-18T19:30:35.360Z,6.47
2018-09-18T19:33:05.660Z,6.97
2018-09-18T19:35:35.607Z,6.87
2018-09-18T19:38:05.704Z,8.57
2018-09-18T19:40:35.874Z,5.50
2018-09-18T19:43:06.247Z,5.30
2018-09-18T19:45:36.375Z,7.03
2018-09-18T19:48:06.486Z,7.53
2018-09-18T19:50:36.806Z,10.77
2018-09-18T19:53:07.175Z,8.90
2018-09-18T19:55:37.180Z,6.77
2018-09-18T19:58:07.901Z,8.93
2018-09-18T20:00:37.982Z,7.10
2018-09-18T20:03:08.451Z,6.20
2018-09-18T20:05:39.507Z,8.80
2018-09-18T20:08:09.651Z,9.27
2018-09-18T20:10:40.327Z,7.90
2018-09-18T20:13:10.904Z,7.40
2018-09-18T20:15:40.993Z,6.70
2018-09-18T20:18:11.622Z,6.67
2018-09-18T20:20:41.844Z,9.13
2018-09-18T20:23:11.932Z,6.07
2018-09-18T20:25:42.408Z,7.53
2018-09-18T20:28:12.621Z,6.97
2018-09-18T20:30:42.691Z,8.13
2018-09-18T20:33:12.882Z,9.63
2018-09-18T20:35:43.068Z,9.57
2018-09-18T20:38:13.337Z,9.60
2018-09-18T20:40:43.505Z,8.63
2018-09-18T20:43:13.794Z,9.53
2018-09-18T20:45:44.028Z,8.37
2018-09-18T20:48:15.231Z,8.00
2018-09-18T20:50:45.777Z,9.57
2018-09-18T20:53:15.948Z,6.93
2018-09-18T20:55:46.318Z,10.50
2018-09-18T20:58:16.398Z,7.27
2018-09-18T21:00:46.461Z,9.27
2018-09-18T21:03:22.090Z,9.33
2018-09-18T21:05:52.230Z,7.73
2018-09-18T21:08:22.570Z,10.60
2018-09-18T21:10:54.304Z,8.87
2018-09-18T21:13:24.349Z,8.53
2018-09-18T21:15:54.578Z,6.43
2018-09-18T21:18:24.756Z,8.20
2018-09-18T21:20:55.383Z,6.00
2018-09-18T21:23:25.878Z,10.27
2018-09-18T21:26:05.923Z,7.70
2018-09-18T21:28:36.419Z,9.03
2018-09-18T21:31:07.535Z,7.77
2018-09-18T21:33:37.622Z,6.93
2018-09-18T21:36:07.706Z,6.03
2018-09-18T21:38:38.283Z,8.87
2018-09-18T21:41:08.407Z,7.17
2018-09-18T21:43:39.340Z,7.87
2018-09-18T21:46:09.478Z,8.40
2018-09-18T21:48:39.460Z,8.37
2018-09-18T21:51:09.978Z,7.17
2018-09-18T21:53:40.026Z,6.07
2018-09-18T21:56:10.656Z,7.63
2018-09-18T21:58:40.780Z,8.93
2018-09-18T22:01:11.157Z,7.93
2018-09-18T22:03:41.259Z,10.03
2018-09-18T22:06:11.274Z,7.67
2018-09-18T22:08:41.342Z,7.67
2018-09-18T22:11:11.934Z,8.23
2018-09-18T22:13:42.039Z,10.33
2018-09-18T22:16:12.223Z,6.63
2018-09-18T22:18:42.704Z,10.27
2018-09-18T22:21:13.451Z,6.93
2018-09-18T22:23:43.544Z,7.80
2018-09-18T22:26:14.202Z,11.47
2018-09-18T22:28:44.484Z,7.40
2018-09-18T22:31:15.327Z,7.77
2018-09-18T22:33:45.792Z,9.73
2018-09-18T22:36:20.391Z,6.70
2018-09-18T22:38:50.440Z,6.57
2018-09-18T22:41:20.715Z,8.00
2018-09-18T22:43:51.295Z,10.07
2018-09-18T22:46:21.386Z,10.07
2018-09-18T22:48:51.478Z,7.27
2018-09-18T22:51:22.278Z,9.13
2018-09-18T22:53:53.215Z,7.63
2018-09-18T22:56:23.410Z,10.17
2018-09-18T22:58:53.855Z,8.37
2018-09-18T23:01:24.363Z,9.53
2018-09-18T23:03:54.563Z,8.37
2018-09-18T23:06:25.024Z,8.97
2018-09-18T23:08:55.110Z,8.67
2018-09-18T23:11:25.292Z,9.03
2018-09-18T23:13:55.487Z,9.13
2018-09-18T23:16:25.978Z,9.37
2018-09-18T23:18:56.529Z,7.00
2018-09-18T23:21:26.556Z,9.00
2018-09-18T23:23:56.793Z,7.00
2018-09-18T23:26:27.594Z,8.33
2018-09-18T23:28:58.376Z,7.57
2018-09-18T23:31:29.747Z,7.70
2018-09-18T23:33:59.931Z,10.07
2018-09-18T23:36:30.034Z,8.67
2018-09-18T23:39:00.149Z,7.53
2018-09-18T23:41:30.520Z,10.80
2018-09-18T23:44:01.235Z,12.30
2018-09-18T23:46:31.435Z,10.13
2018-09-18T23:49:02.596Z,9.83
2018-09-18T23:51:33.618Z,7.50
2018-09-18T23:54:03.606Z,10.17
2018-09-18T23:56:34.240Z,7.13
2018-09-18T23:59:05.047Z,10.47
